Time;durP1;ratioP1;P1;durP2;ratioP2;P2;SDS_P1;SDS_P2;PMS_P1;PMS_P2;Temp;Humidity;BMP_temperature;BMP_pressure;BME280_temperature;BME280_humidity;BME280_pressure;Samples;Min_cycle;Max_cycle;Signal;HPM_P1;HPM_P2
2022/11/07 00:00:11;;;;;;;4.32;1.42;;;11.00;99.90;;;;;;5021192;28;20487;-75
2022/11/07 00:02:40;;;;;;;11.98;2.42;;;11.00;99.90;;;;;;5038967;28;20377;-73
2022/11/07 00:05:07;;;;;;;6.90;2.28;;;11.00;99.90;;;;;;5010410;28;20044;-71
2022/11/07 00:07:33;;;;;;;5.22;1.30;;;11.00;99.90;;;;;;5005453;28;20423;-74
2022/11/07 00:09:59;;;;;;;7.00;1.60;;;11.00;99.90;;;;;;5037812;28;20044;-75
2022/11/07 00:12:26;;;;;;;8.85;2.38;;;11.00;99.90;;;;;;5037540;28;20535;-74
2022/11/07 00:14:52;;;;;;;6.03;1.88;;;11.00;99.90;;;;;;5042085;28;20040;-75
2022/11/07 00:17:18;;;;;;;7.05;1.52;;;11.00;99.90;;;;;;5025483;28;20033;-75
2022/11/07 00:19:45;;;;;;;5.53;1.52;;;11.00;99.90;;;;;;5041204;28;20056;-74
2022/11/07 00:22:11;;;;;;;8.38;2.38;;;11.00;99.90;;;;;;5040195;28;20045;-74
2022/11/07 00:24:37;;;;;;;5.22;1.65;;;10.90;99.90;;;;;;5037470;28;20036;-75
2022/11/07 00:27:04;;;;;;;4.50;1.30;;;10.90;99.90;;;;;;5041819;28;20029;-72
2022/11/07 00:29:30;;;;;;;7.18;2.13;;;10.90;99.90;;;;;;5024970;28;20337;-74
2022/11/07 00:31:58;;;;;;;6.78;2.15;;;10.90;99.90;;;;;;5021292;28;20072;-74
2022/11/07 00:34:24;;;;;;;7.47;2.58;;;10.90;99.90;;;;;;5052879;28;20036;-75
2022/11/07 00:36:51;;;;;;;9.93;2.13;;;10.90;99.90;;;;;;5042608;28;20029;-74
2022/11/07 00:39:17;;;;;;;4.80;2.03;;;10.90;99.90;;;;;;5040902;28;20519;-75
2022/11/07 00:41:47;;;;;;;10.20;2.30;;;11.00;99.90;;;;;;5022905;28;20048;-74
2022/11/07 00:44:13;;;;;;;5.57;1.83;;;11.00;99.90;;;;;;5006091;28;20037;-74
2022/11/07 00:46:39;;;;;;;5.53;1.55;;;11.00;99.90;;;;;;5024785;28;20024;-75
2022/11/07 00:49:06;;;;;;;6.93;1.50;;;11.10;99.90;;;;;;5039621;28;20044;-72
2022/11/07 00:51:32;;;;;;;6.57;1.70;;;11.10;99.90;;;;;;5021834;28;20534;-76
2022/11/07 00:54:01;;;;;;;5.82;1.60;;;11.10;99.90;;;;;;5038951;28;20036;-74
2022/11/07 00:56:27;;;;;;;7.15;1.50;;;11.10;99.90;;;;;;5042003;28;20040;-75
2022/11/07 00:58:55;;;;;;;3.80;1.08;;;11.10;99.90;;;;;;5026494;28;20049;-75
2022/11/07 01:01:25;;;;;;;7.57;1.92;;;11.10;99.90;;;;;;5035901;28;20052;-73
2022/11/07 01:06:38;;;;;;;8.23;2.55;;;11.10;99.90;;;;;;5042030;28;20037;-74
2022/11/07 01:09:07;;;;;;;5.05;1.80;;;11.10;99.90;;;;;;5008490;28;20040;-74
2022/11/07 01:11:35;;;;;;;7.70;1.55;;;11.10;99.90;;;;;;5025031;28;20041;-75
2022/11/07 01:14:02;;;;;;;4.70;1.10;;;11.10;99.90;;;;;;5038766;28;20563;-75
2022/11/07 01:16:29;;;;;;;6.35;1.65;;;11.10;99.90;;;;;;5058399;28;20045;-75
2022/11/07 01:18:56;;;;;;;4.13;1.00;;;11.10;99.90;;;;;;5041596;28;20036;-75
2022/11/07 01:21:22;;;;;;;8.93;1.92;;;11.00;99.90;;;;;;5020562;28;20392;-75
2022/11/07 01:23:49;;;;;;;7.18;1.42;;;11.00;99.90;;;;;;5004905;28;20065;-74
2022/11/07 01:26:15;;;;;;;6.20;1.65;;;11.00;99.90;;;;;;5039701;28;20039;-74
2022/11/07 01:28:42;;;;;;;5.63;1.42;;;11.00;99.90;;;;;;5041838;28;20037;-75
2022/11/07 01:31:11;;;;;;;5.95;1.33;;;11.00;99.90;;;;;;5039355;28;20037;-75
2022/11/07 01:33:38;;;;;;;7.43;1.77;;;11.10;99.90;;;;;;5038643;28;20514;-75
2022/11/07 01:36:07;;;;;;;5.13;1.00;;;11.10;99.90;;;;;;5025828;28;20040;-74
2022/11/07 01:38:40;;;;;;;10.57;2.10;;;11.10;99.90;;;;;;5027499;28;20051;-73
2022/11/07 01:41:20;;;;;;;6.13;1.00;;;11.10;99.90;;;;;;5022879;28;20037;-74
2022/11/07 01:44:03;;;;;;;9.23;1.77;;;11.20;99.90;;;;;;5007689;28;20051;-72
2022/11/07 01:46:31;;;;;;;5.85;1.05;;;11.20;99.90;;;;;;5030035;28;20045;-74
2022/11/07 01:49:11;;;;;;;7.68;1.23;;;11.20;99.90;;;;;;5041484;28;20045;-74
2022/11/07 01:51:43;;;;;;;6.20;1.45;;;11.20;99.90;;;;;;5040580;28;20048;-71
2022/11/07 01:54:11;;;;;;;7.38;1.58;;;11.20;99.90;;;;;;5024074;28;20048;-73
2022/11/07 01:56:41;;;;;;;8.52;1.42;;;11.20;99.90;;;;;;5042226;28;20083;-74
2022/11/07 01:59:10;;;;;;;7.75;1.52;;;11.20;99.90;;;;;;5041892;28;20052;-75
2022/11/07 02:01:36;;;;;;;7.60;1.17;;;11.20;99.90;;;;;;5022062;28;20032;-74
2022/11/07 02:04:03;;;;;;;9.82;1.98;;;11.20;99.90;;;;;;5021999;28;20592;-75
2022/11/07 02:06:46;;;;;;;5.10;1.08;;;11.20;99.90;;;;;;5026011;28;20044;-72
2022/11/07 02:09:13;;;;;;;5.70;1.10;;;11.20;99.90;;;;;;5024874;28;20037;-74
2022/11/07 02:11:40;;;;;;;8.48;1.33;;;11.20;99.90;;;;;;5021620;28;20025;-72
2022/11/07 02:14:06;;;;;;;5.85;1.38;;;11.20;99.90;;;;;;5036245;28;20025;-74
2022/11/07 02:16:36;;;;;;;4.00;0.95;;;11.20;99.90;;;;;;5040010;28;20056;-75
2022/11/07 02:19:07;;;;;;;4.45;1.10;;;11.20;99.90;;;;;;5028355;28;20059;-75
2022/11/07 02:22:01;;;;;;;3.65;1.00;;;11.20;99.90;;;;;;5004589;28;20043;-76
2022/11/07 02:24:36;;;;;;;9.80;1.60;;;11.20;99.90;;;;;;5020152;28;20049;-75
2022/11/07 02:27:08;;;;;;;7.40;1.30;;;11.20;99.90;;;;;;5009164;28;20037;-75
2022/11/07 02:29:37;;;;;;;6.50;1.42;;;11.20;99.90;;;;;;5039068;28;20045;-75
2022/11/07 02:32:06;;;;;;;4.65;1.25;;;11.20;99.90;;;;;;5037061;28;20043;-74
2022/11/07 02:34:33;;;;;;;6.82;1.75;;;11.20;99.90;;;;;;5021145;28;20060;-76
2022/11/07 02:37:01;;;;;;;2.78;0.85;;;11.10;99.90;;;;;;5039124;28;20039;-74
2022/11/07 02:39:28;;;;;;;5.40;1.33;;;11.10;99.90;;;;;;5023294;28;20506;-76
2022/11/07 02:41:56;;;;;;;5.57;1.45;;;11.10;99.90;;;;;;5019572;28;20032;-76
2022/11/07 02:44:23;;;;;;;6.65;1.42;;;11.20;99.90;;;;;;5004674;28;20033;-75
2022/11/07 02:46:49;;;;;;;5.40;1.08;;;11.20;99.90;;;;;;5038718;28;20510;-74
2022/11/07 02:49:15;;;;;;;9.20;1.55;;;11.20;99.90;;;;;;5005731;28;20025;-72
2022/11/07 02:51:42;;;;;;;6.60;1.48;;;11.20;99.90;;;;;;5035186;28;20044;-73
2022/11/07 02:54:08;;;;;;;8.32;1.10;;;11.20;99.90;;;;;;5006127;28;20527;-74
2022/11/07 02:56:34;;;;;;;5.90;1.45;;;11.10;99.90;;;;;;5043032;28;20036;-76
2022/11/07 02:59:01;;;;;;;6.78;1.52;;;11.10;99.90;;;;;;5041914;28;20049;-74
2022/11/07 03:01:27;;;;;;;7.65;1.88;;;11.10;99.90;;;;;;5039157;28;20056;-77
2022/11/07 03:03:54;;;;;;;10.93;1.65;;;11.10;99.90;;;;;;5039777;28;20037;-75
2022/11/07 03:06:24;;;;;;;7.07;1.48;;;11.00;99.90;;;;;;5024519;28;20033;-74
2022/11/07 03:08:51;;;;;;;9.68;2.17;;;11.00;99.90;;;;;;5026892;28;20028;-76
2022/11/07 03:11:18;;;;;;;6.03;1.23;;;10.90;99.90;;;;;;5038935;28;20038;-74
2022/11/07 03:13:49;;;;;;;6.95;1.77;;;10.90;99.90;;;;;;5038161;28;20029;-75
2022/11/07 03:16:17;;;;;;;8.48;1.50;;;10.90;99.90;;;;;;5044531;28;20017;-75
2022/11/07 03:18:44;;;;;;;5.80;1.33;;;10.90;99.90;;;;;;5043253;28;20468;-75
2022/11/07 03:21:10;;;;;;;4.28;0.90;;;10.90;99.90;;;;;;5039176;28;20041;-75
2022/11/07 03:23:36;;;;;;;9.27;2.42;;;10.80;99.90;;;;;;5041143;28;20044;-74
2022/11/07 03:26:04;;;;;;;6.68;1.25;;;10.70;99.90;;;;;;5043956;28;20063;-75
2022/11/07 03:28:31;;;;;;;7.82;1.20;;;10.70;99.90;;;;;;5015154;28;20040;-75
2022/11/07 03:31:02;;;;;;;6.38;1.42;;;10.70;99.90;;;;;;5040951;28;20040;-74
2022/11/07 03:33:29;;;;;;;7.65;1.40;;;10.70;99.90;;;;;;5007896;28;20037;-74
2022/11/07 03:35:55;;;;;;;4.88;1.30;;;10.70;99.90;;;;;;5028908;28;20033;-75
2022/11/07 03:38:22;;;;;;;6.03;0.85;;;10.70;99.90;;;;;;5027625;28;20502;-73
2022/11/07 03:40:48;;;;;;;9.32;1.45;;;10.70;99.90;;;;;;5038689;28;20044;-72
2022/11/07 03:43:14;;;;;;;8.45;1.80;;;10.80;99.90;;;;;;5039650;28;20403;-74
2022/11/07 03:45:41;;;;;;;6.35;1.45;;;10.80;99.90;;;;;;5042587;28;20037;-74
2022/11/07 03:48:07;;;;;;;7.15;1.73;;;10.80;99.90;;;;;;5046908;28;20033;-75
2022/11/07 03:50:33;;;;;;;5.65;1.90;;;10.80;99.90;;;;;;5023806;28;20041;-75
2022/11/07 03:53:00;;;;;;;13.20;2.28;;;10.90;99.90;;;;;;5023560;28;20149;-74
2022/11/07 03:55:26;;;;;;;6.85;1.33;;;10.90;99.90;;;;;;5042937;28;20041;-77
2022/11/07 03:57:52;;;;;;;9.02;1.45;;;11.00;99.90;;;;;;5012119;28;20049;-77
2022/11/07 04:00:19;;;;;;;4.13;0.77;;;11.00;99.90;;;;;;5023598;28;20036;-76
2022/11/07 04:02:45;;;;;;;6.68;0.95;;;11.10;99.90;;;;;;5019964;28;20045;-76
2022/11/07 04:05:12;;;;;;;6.63;1.73;;;11.10;99.90;;;;;;5025795;28;20041;-75
2022/11/07 04:07:39;;;;;;;8.88;2.10;;;11.10;99.90;;;;;;5014235;28;20048;-75
2022/11/07 04:10:05;;;;;;;10.80;2.28;;;11.10;99.90;;;;;;5041428;28;20040;-74
2022/11/07 04:18:02;;;;;;;9.18;1.65;;;11.10;99.90;;;;;;5043149;28;20037;-73
2022/11/07 04:20:29;;;;;;;7.05;1.42;;;11.20;99.90;;;;;;5025699;28;20041;-75
2022/11/07 04:22:55;;;;;;;9.13;1.63;;;11.20;99.90;;;;;;5041555;28;20100;-74
2022/11/07 04:27:41;;;;;;;9.13;1.30;;;11.20;99.90;;;;;;5043598;28;20049;-75
2022/11/07 04:28:08;;;;;;;7.15;1.40;;;11.10;99.90;;;;;;5026536;28;20056;-73
2022/11/07 04:30:34;;;;;;;7.35;1.20;;;11.10;99.90;;;;;;5023698;28;20419;-74
2022/11/07 04:33:01;;;;;;;7.53;1.10;;;11.10;99.90;;;;;;5038233;28;20041;-75
2022/11/07 04:35:30;;;;;;;5.30;1.30;;;11.10;99.90;;;;;;5041856;28;20048;-75
2022/11/07 04:37:58;;;;;;;9.88;1.42;;;11.10;99.90;;;;;;5040103;28;20034;-74
2022/11/07 04:40:24;;;;;;;7.50;1.10;;;11.10;99.90;;;;;;5008838;28;20033;-74
2022/11/07 04:42:51;;;;;;;6.95;1.90;;;11.20;99.90;;;;;;5022682;28;20045;-74
2022/11/07 04:45:17;;;;;;;10.13;1.10;;;11.20;99.90;;;;;;5038264;28;20040;-74
2022/11/07 04:47:44;;;;;;;7.72;1.00;;;11.20;99.90;;;;;;5024981;28;20033;-74
2022/11/07 04:50:13;;;;;;;11.52;1.50;;;11.20;99.90;;;;;;5006783;28;20045;-74
2022/11/07 04:52:39;;;;;;;8.20;1.20;;;11.20;99.90;;;;;;5023485;28;20452;-72
2022/11/07 04:55:08;;;;;;;9.55;1.58;;;11.30;99.90;;;;;;5023908;28;20425;-75
2022/11/07 04:57:34;;;;;;;12.82;1.20;;;11.30;99.90;;;;;;5041063;28;20060;-77
2022/11/07 05:00:01;;;;;;;9.10;1.40;;;11.30;99.90;;;;;;5041132;28;20381;-75
2022/11/07 05:02:27;;;;;;;8.88;1.60;;;11.30;99.90;;;;;;5037016;28;20408;-75
2022/11/07 05:04:54;;;;;;;8.63;1.27;;;11.40;99.90;;;;;;5039273;28;20033;-76
2022/11/07 05:07:20;;;;;;;8.20;1.10;;;11.40;99.90;;;;;;5040008;28;20044;-74
2022/11/07 05:09:46;;;;;;;10.57;1.48;;;11.40;99.90;;;;;;5026093;28;20036;-73
2022/11/07 05:12:13;;;;;;;12.95;1.58;;;11.40;99.90;;;;;;5004679;28;20060;-73
2022/11/07 05:14:39;;;;;;;7.63;1.17;;;11.40;99.90;;;;;;5022885;28;20033;-76
2022/11/07 05:17:06;;;;;;;11.90;1.17;;;11.50;99.90;;;;;;5008369;28;20037;-75
2022/11/07 05:19:32;;;;;;;7.35;1.10;;;11.50;99.90;;;;;;5024534;28;20514;-77
2022/11/07 05:24:43;;;;;;;11.45;1.83;;;11.50;99.90;;;;;;5037835;28;20033;-74
2022/11/07 05:27:17;;;;;;;12.75;1.90;;;11.50;99.90;;;;;;5010802;28;20044;-75
2022/11/07 05:29:44;;;;;;;9.13;1.45;;;11.50;99.90;;;;;;5040017;28;20479;-75
2022/11/07 05:32:10;;;;;;;10.20;2.33;;;11.50;99.90;;;;;;5034741;28;20037;-75
2022/11/07 05:34:37;;;;;;;9.38;1.73;;;11.50;99.90;;;;;;5036787;28;20268;-75
2022/11/07 05:37:07;;;;;;;11.38;1.83;;;11.50;99.90;;;;;;5022925;28;20046;-74
2022/11/07 05:39:33;;;;;;;10.48;1.95;;;11.50;99.90;;;;;;5039123;28;20048;-75
2022/11/07 05:42:01;;;;;;;5.88;1.00;;;11.50;99.90;;;;;;5019810;28;20044;-75
2022/11/07 05:44:28;;;;;;;15.48;1.55;;;11.50;99.90;;;;;;5039178;28;20041;-77
2022/11/07 05:46:58;;;;;;;11.50;1.45;;;11.50;99.90;;;;;;5008176;28;20040;-76
2022/11/07 05:49:24;;;;;;;11.88;2.70;;;11.50;99.90;;;;;;5022565;28;20041;-75
2022/11/07 05:51:52;;;;;;;7.82;1.55;;;11.50;99.90;;;;;;5022826;28;20384;-74
2022/11/07 05:54:18;;;;;;;11.15;2.63;;;11.50;99.90;;;;;;5022322;28;20029;-74
2022/11/07 05:56:45;;;;;;;14.18;3.63;;;11.50;99.90;;;;;;5042373;28;20035;-75
2022/11/07 05:59:11;;;;;;;12.20;2.17;;;11.50;99.90;;;;;;5039193;28;20037;-75
2022/11/07 06:01:37;;;;;;;13.48;4.63;;;11.60;99.90;;;;;;5023135;28;20514;-74
2022/11/07 06:04:05;;;;;;;15.43;3.97;;;11.50;99.90;;;;;;5019727;28;20048;-76
2022/11/07 06:06:31;;;;;;;8.75;2.05;;;11.50;99.90;;;;;;5038260;28;20467;-76
2022/11/07 06:08:58;;;;;;;10.02;1.70;;;11.60;99.90;;;;;;5043355;28;20040;-75
2022/11/07 06:11:24;;;;;;;12.23;1.90;;;11.60;99.90;;;;;;5018941;28;20048;-75
2022/11/07 06:13:52;;;;;;;13.05;1.95;;;11.60;99.90;;;;;;5039532;28;20060;-77
2022/11/07 06:16:19;;;;;;;8.57;2.20;;;11.50;99.90;;;;;;5024643;28;20035;-73
2022/11/07 06:18:45;;;;;;;13.70;1.98;;;11.50;99.90;;;;;;5040427;28;20033;-75
2022/11/07 06:21:12;;;;;;;7.55;1.85;;;11.50;99.90;;;;;;5039772;28;20052;-76
2022/11/07 06:23:39;;;;;;;11.52;1.80;;;11.50;99.90;;;;;;5024278;28;20471;-75
2022/11/07 06:26:05;;;;;;;11.73;1.92;;;11.50;99.90;;;;;;5008810;28;20044;-75
2022/11/07 06:28:31;;;;;;;17.83;2.80;;;11.50;99.90;;;;;;5041360;28;20037;-77
2022/11/07 06:31:02;;;;;;;9.25;2.17;;;11.50;99.90;;;;;;5021071;28;20423;-76
2022/11/07 06:33:28;;;;;;;13.60;2.50;;;11.50;99.90;;;;;;5038402;28;20358;-75
2022/11/07 06:36:02;;;;;;;11.82;1.30;;;11.50;99.90;;;;;;5042772;28;20472;-76
2022/11/07 06:38:28;;;;;;;10.25;1.67;;;11.50;99.90;;;;;;5042368;28;20040;-76
2022/11/07 06:40:55;;;;;;;12.73;2.38;;;11.50;99.90;;;;;;5040056;28;20033;-75
2022/11/07 06:43:21;;;;;;;16.30;3.05;;;11.50;99.90;;;;;;5022093;28;20040;-74
2022/11/07 06:45:47;;;;;;;16.58;2.28;;;11.50;99.90;;;;;;5040531;28;20025;-76
2022/11/07 06:48:14;;;;;;;12.32;1.40;;;11.50;99.90;;;;;;5040382;28;20052;-75
2022/11/07 06:50:40;;;;;;;12.38;2.53;;;11.50;99.90;;;;;;5038455;28;20237;-75
2022/11/07 06:53:10;;;;;;;9.27;1.48;;;11.60;99.90;;;;;;5038444;28;20045;-75
2022/11/07 06:55:37;;;;;;;7.90;1.23;;;11.50;99.90;;;;;;5032168;28;20048;-77
2022/11/07 06:58:04;;;;;;;13.23;1.77;;;11.60;99.90;;;;;;5041690;28;20053;-76
2022/11/07 07:00:33;;;;;;;9.45;1.63;;;11.50;99.90;;;;;;5036930;28;21023;-75
2022/11/07 07:03:00;;;;;;;9.20;1.70;;;11.60;99.90;;;;;;5004190;28;20052;-75
2022/11/07 07:05:26;;;;;;;13.18;2.78;;;11.60;99.90;;;;;;5038611;28;20047;-75
2022/11/07 07:07:54;;;;;;;16.52;2.10;;;11.60;99.90;;;;;;5023714;28;20516;-76
2022/11/07 07:10:20;;;;;;;12.27;1.60;;;11.60;99.90;;;;;;5037895;28;20411;-77
2022/11/07 07:12:47;;;;;;;15.43;2.53;;;11.60;99.90;;;;;;5037246;28;20044;-76
2022/11/07 07:15:13;;;;;;;9.85;1.63;;;11.70;99.90;;;;;;5040239;28;20381;-76
2022/11/07 07:17:40;;;;;;;14.45;3.22;;;11.70;99.90;;;;;;5024294;28;20044;-76
2022/11/07 07:20:07;;;;;;;11.30;1.70;;;11.70;99.90;;;;;;5019777;28;20412;-77
2022/11/07 07:22:33;;;;;;;11.30;1.73;;;11.70;99.90;;;;;;5024835;28;20049;-74
2022/11/07 07:24:59;;;;;;;6.10;0.93;;;11.70;99.90;;;;;;5037697;28;20037;-77
2022/11/07 07:27:26;;;;;;;17.70;2.10;;;11.70;99.90;;;;;;5039926;28;20032;-78
2022/11/07 07:29:52;;;;;;;9.70;1.10;;;11.80;99.90;;;;;;5017900;28;20389;-73
2022/11/07 07:32:19;;;;;;;10.90;1.73;;;11.80;99.90;;;;;;5016669;28;20036;-74
2022/11/07 07:34:46;;;;;;;9.70;1.63;;;11.80;99.90;;;;;;5019871;28;20036;-76
2022/11/07 07:37:12;;;;;;;11.70;1.42;;;11.80;99.90;;;;;;5021432;28;20043;-77
2022/11/07 07:39:38;;;;;;;11.07;1.73;;;11.90;99.90;;;;;;5022260;28;20867;-79
2022/11/07 07:42:05;;;;;;;12.05;1.60;;;11.90;99.90;;;;;;5038511;28;20033;-79
2022/11/07 07:44:31;;;;;;;12.10;2.63;;;11.90;99.90;;;;;;5039391;28;20044;-80
2022/11/07 07:46:57;;;;;;;7.93;1.50;;;11.90;99.90;;;;;;5040116;28;20025;-78
2022/11/07 07:49:24;;;;;;;14.82;2.40;;;11.90;99.90;;;;;;5039856;28;20444;-79
2022/11/07 07:51:50;;;;;;;11.35;1.40;;;12.00;99.90;;;;;;5036819;28;20029;-74
2022/11/07 07:54:16;;;;;;;13.15;2.38;;;12.00;99.90;;;;;;5009321;28;20028;-78
2022/11/07 07:56:43;;;;;;;11.00;1.80;;;12.10;99.90;;;;;;5028710;28;20037;-78
2022/11/07 07:59:09;;;;;;;10.57;2.00;;;12.10;99.90;;;;;;5044526;28;20044;-76
2022/11/07 08:01:35;;;;;;;12.77;2.17;;;12.20;99.90;;;;;;5007461;28;20427;-77
2022/11/07 08:04:02;;;;;;;16.98;1.80;;;12.20;99.90;;;;;;5036707;28;20037;-74
2022/11/07 08:06:28;;;;;;;10.52;1.30;;;12.20;99.90;;;;;;5028056;28;20051;-78
2022/11/07 08:08:55;;;;;;;12.25;1.23;;;12.20;99.90;;;;;;5041632;28;20039;-79
2022/11/07 08:11:21;;;;;;;11.43;1.20;;;12.30;99.90;;;;;;5042774;28;20052;-76
2022/11/07 08:13:47;;;;;;;9.55;1.35;;;12.30;99.90;;;;;;5022730;28;20508;-79
2022/11/07 08:16:14;;;;;;;9.27;1.08;;;12.40;99.90;;;;;;5007029;28;20043;-77
2022/11/07 08:18:40;;;;;;;16.25;1.95;;;12.40;99.90;;;;;;5014833;28;20048;-76
2022/11/07 08:21:07;;;;;;;11.27;1.80;;;12.50;99.90;;;;;;5021784;28;20060;-78
2022/11/07 08:23:34;;;;;;;12.55;1.75;;;12.50;99.90;;;;;;5039246;28;20495;-76
2022/11/07 08:26:03;;;;;;;14.82;3.28;;;12.50;99.90;;;;;;5042166;28;20029;-79
2022/11/07 08:28:32;;;;;;;17.48;2.55;;;12.60;99.90;;;;;;5042775;28;20036;-78
2022/11/07 08:30:59;;;;;;;12.43;1.80;;;12.70;99.90;;;;;;5020416;28;20037;-79
2022/11/07 08:33:26;;;;;;;17.70;2.13;;;12.80;99.90;;;;;;5040379;28;20488;-78
2022/11/07 08:35:59;;;;;;;7.03;1.52;;;12.80;99.90;;;;;;5041409;28;20048;-78
2022/11/07 08:38:26;;;;;;;8.95;1.60;;;12.90;99.90;;;;;;5041874;28;20055;-77
2022/11/07 08:40:53;;;;;;;13.55;2.15;;;13.00;99.90;;;;;;5037079;28;20041;-76
2022/11/07 08:43:19;;;;;;;8.98;1.35;;;13.10;99.90;;;;;;5037887;28;20033;-80
2022/11/07 08:45:47;;;;;;;8.55;1.70;;;13.20;99.90;;;;;;5039789;28;20040;-77
2022/11/07 08:48:15;;;;;;;7.80;1.25;;;13.30;99.90;;;;;;5013295;28;20041;-72
2022/11/07 08:50:41;;;;;;;10.52;1.40;;;13.40;99.90;;;;;;5038103;28;20040;-76
2022/11/07 08:53:08;;;;;;;10.38;1.25;;;13.50;99.90;;;;;;5037954;28;20032;-74
2022/11/07 08:55:35;;;;;;;13.48;3.30;;;13.60;99.90;;;;;;5022545;28;20135;-76
2022/11/07 08:58:04;;;;;;;8.82;1.83;;;13.60;99.90;;;;;;5041588;28;20079;-75
2022/11/07 09:00:31;;;;;;;9.77;2.17;;;13.60;99.90;;;;;;5038447;28;20070;-76
2022/11/07 09:03:06;;;;;;;8.32;1.38;;;13.60;99.90;;;;;;5038333;28;20040;-75
2022/11/07 09:05:33;;;;;;;8.15;1.60;;;13.60;99.90;;;;;;5007872;28;20049;-77
2022/11/07 09:08:00;;;;;;;9.02;1.65;;;13.60;99.90;;;;;;5042801;28;20080;-77
2022/11/07 09:10:27;;;;;;;10.27;1.35;;;13.60;99.90;;;;;;5022697;28;20041;-76
2022/11/07 09:12:53;;;;;;;6.85;1.13;;;13.60;99.90;;;;;;5021486;28;20043;-73
2022/11/07 09:15:20;;;;;;;7.53;1.33;;;13.60;99.90;;;;;;5033762;28;20118;-74
2022/11/07 09:17:47;;;;;;;7.40;0.90;;;13.60;99.90;;;;;;5036938;28;20396;-73
2022/11/07 09:20:13;;;;;;;6.95;0.90;;;13.70;99.90;;;;;;5038100;28;20120;-73
2022/11/07 09:22:40;;;;;;;8.30;1.00;;;13.70;99.90;;;;;;5018491;28;20495;-75
2022/11/07 09:25:07;;;;;;;7.93;1.67;;;13.70;99.90;;;;;;5035632;28;20640;-74
2022/11/07 09:27:33;;;;;;;11.05;1.35;;;13.70;99.90;;;;;;5019155;28;20045;-73
2022/11/07 09:30:00;;;;;;;5.97;0.98;;;13.70;99.90;;;;;;5019452;28;20029;-75
2022/11/07 09:32:26;;;;;;;6.18;0.77;;;13.70;99.90;;;;;;5018728;28;20063;-75
2022/11/07 09:34:53;;;;;;;9.32;1.05;;;13.80;99.90;;;;;;5020804;28;20043;-74
2022/11/07 09:37:20;;;;;;;8.45;0.98;;;13.80;99.90;;;;;;5019000;28;20477;-74
2022/11/07 09:39:47;;;;;;;10.75;1.40;;;13.70;99.90;;;;;;5036994;28;20040;-74
2022/11/07 09:42:44;;;;;;;6.97;1.38;;;13.70;99.90;;;;;;5033187;28;20644;-73
2022/11/07 09:45:12;;;;;;;12.43;1.33;;;13.80;99.90;;;;;;5036112;28;20025;-75
2022/11/07 09:47:44;;;;;;;11.57;1.60;;;13.80;99.90;;;;;;5036057;28;20047;-73
2022/11/07 09:50:22;;;;;;;7.97;1.10;;;13.80;99.90;;;;;;5037117;28;20040;-75
2022/11/07 09:52:57;;;;;;;9.43;1.00;;;13.70;99.90;;;;;;5016136;28;20048;-75
2022/11/07 09:55:30;;;;;;;10.80;1.60;;;13.70;99.90;;;;;;5037710;28;20037;-75
2022/11/07 09:58:04;;;;;;;10.73;1.40;;;13.80;99.90;;;;;;5017420;28;20064;-76
2022/11/07 10:00:32;;;;;;;10.35;1.77;;;13.80;99.90;;;;;;5040834;28;20029;-76
2022/11/07 10:03:01;;;;;;;7.93;1.10;;;13.80;99.90;;;;;;5036160;28;20041;-76
2022/11/07 10:05:49;;;;;;;9.02;1.38;;;13.90;99.90;;;;;;5020712;28;20144;-78
2022/11/07 10:08:53;;;;;;;8.05;1.20;;;13.80;99.90;;;;;;5039769;28;20033;-74
2022/11/07 10:11:22;;;;;;;6.53;0.77;;;13.80;99.90;;;;;;5019290;28;20041;-77
2022/11/07 10:13:58;;;;;;;8.85;1.15;;;13.80;99.90;;;;;;5033564;28;20032;-75
2022/11/07 10:16:34;;;;;;;9.43;1.02;;;13.80;99.90;;;;;;5034413;28;20029;-74
2022/11/07 10:19:36;;;;;;;9.95;1.58;;;13.80;99.90;;;;;;5023516;28;20055;-77
2022/11/07 10:22:37;;;;;;;10.63;1.20;;;13.80;99.90;;;;;;5013546;28;20068;-76
2022/11/07 10:25:23;;;;;;;18.40;2.25;;;13.80;99.90;;;;;;5024940;28;20052;-74
2022/11/07 10:28:11;;;;;;;9.70;1.52;;;13.70;99.90;;;;;;5044479;28;20029;-76
2022/11/07 10:30:39;;;;;;;9.10;2.67;;;13.80;99.90;;;;;;5020703;28;20037;-76
2022/11/07 10:33:32;;;;;;;11.93;2.28;;;13.70;99.90;;;;;;5037339;28;20393;-75
2022/11/07 10:36:01;;;;;;;;;;;13.70;99.90;;;;;;5025554;28;20028;-75
2022/11/07 10:38:30;;;;;;;11.38;1.52;;;13.70;99.90;;;;;;5043406;28;20295;-78
2022/11/07 10:40:56;;;;;;;6.68;0.90;;;13.70;99.90;;;;;;5024090;28;20041;-73
2022/11/07 10:43:32;;;;;;;10.32;1.20;;;13.70;99.90;;;;;;5005985;28;20049;-73
2022/11/07 10:46:04;;;;;;;12.07;1.60;;;13.70;99.90;;;;;;5042453;28;20033;-78
2022/11/07 10:48:32;;;;;;;6.97;1.17;;;13.70;99.90;;;;;;5031957;28;20040;-75
2022/11/07 10:50:58;;;;;;;10.15;2.15;;;13.70;99.90;;;;;;5041313;28;20558;-74
2022/11/07 10:53:25;;;;;;;7.28;1.27;;;13.70;99.90;;;;;;5039977;28;20033;-75
2022/11/07 10:55:53;;;;;;;16.02;2.00;;;13.70;99.90;;;;;;5038354;28;20029;-72
2022/11/07 10:58:24;;;;;;;10.10;1.50;;;13.70;99.90;;;;;;5019058;28;20427;-73
2022/11/07 11:01:08;;;;;;;7.70;1.83;;;13.80;99.90;;;;;;5033816;28;20487;-74
2022/11/07 11:03:41;;;;;;;12.15;1.23;;;13.90;99.90;;;;;;5033917;28;20817;-73
2022/11/07 11:06:30;;;;;;;;;;;13.90;99.90;;;;;;5022815;28;20496;-75
2022/11/07 11:08:58;;;;;;;12.18;1.63;;;14.00;99.90;;;;;;5007416;28;19915;-77
2022/11/07 11:11:31;;;;;;;8.82;1.30;;;14.00;99.90;;;;;;5039693;28;20468;-76
2022/11/07 11:14:04;;;;;;;10.23;1.05;;;14.00;99.90;;;;;;5037902;28;20523;-76
2022/11/07 11:16:35;;;;;;;14.35;1.45;;;14.10;99.90;;;;;;5043985;28;20043;-76
2022/11/07 11:19:01;;;;;;;12.20;1.60;;;14.20;99.90;;;;;;5019016;28;20033;-73
2022/11/07 11:21:57;;;;;;;8.73;1.02;;;14.30;99.90;;;;;;5023576;28;20045;-76
2022/11/07 11:24:36;;;;;;;11.02;2.33;;;14.40;99.90;;;;;;5035774;28;20052;-75
2022/11/07 11:27:21;;;;;;;10.50;1.40;;;14.40;99.90;;;;;;5043705;28;20037;-77
2022/11/07 11:30:07;;;;;;;12.43;2.10;;;14.50;99.90;;;;;;5027687;28;20044;-76
2022/11/07 11:32:39;;;;;;;15.73;2.78;;;14.50;99.90;;;;;;5022747;28;20047;-77
2022/11/07 11:35:35;;;;;;;10.52;1.60;;;14.50;99.90;;;;;;5042619;28;20041;-77
2022/11/07 11:38:14;;;;;;;8.20;1.23;;;14.40;99.90;;;;;;5041656;28;20807;-76
2022/11/07 11:40:47;;;;;;;12.10;2.13;;;14.30;99.90;;;;;;5025628;28;20041;-77
2022/11/07 11:43:25;;;;;;;9.15;1.50;;;14.40;99.90;;;;;;5023124;28;20040;-74
2022/11/07 11:46:16;;;;;;;12.52;1.77;;;14.30;99.90;;;;;;5041056;28;20786;-77
2022/11/07 11:49:00;;;;;;;7.10;0.90;;;14.30;99.90;;;;;;5010410;28;20048;-74
2022/11/07 11:51:44;;;;;;;11.45;1.77;;;14.30;99.90;;;;;;5037749;28;20044;-73
2022/11/07 11:54:13;;;;;;;9.80;1.63;;;14.30;99.90;;;;;;5037740;28;20040;-75
2022/11/07 11:56:57;;;;;;;10.93;1.60;;;14.40;99.90;;;;;;5040808;28;20056;-76
2022/11/07 11:59:48;;;;;;;14.68;2.40;;;14.50;99.90;;;;;;5041416;28;20041;-73
2022/11/07 12:02:33;;;;;;;10.18;1.63;;;14.60;99.90;;;;;;5039241;28;20045;-73
2022/11/07 12:05:23;;;;;;;15.35;2.03;;;14.60;99.90;;;;;;5043134;28;20041;-74
2022/11/07 12:07:57;;;;;;;13.70;1.75;;;14.70;99.90;;;;;;5041916;28;20380;-75
2022/11/07 12:10:39;;;;;;;14.10;1.33;;;14.70;99.90;;;;;;5021735;28;20518;-75
2022/11/07 12:13:11;;;;;;;6.82;1.33;;;14.70;99.90;;;;;;5022732;28;20049;-75
2022/11/07 12:16:02;;;;;;;10.15;2.00;;;14.70;99.90;;;;;;5041987;28;20404;-73
2022/11/07 12:18:46;;;;;;;14.18;1.65;;;14.70;99.90;;;;;;5031552;28;20037;-72
2022/11/07 12:21:24;;;;;;;11.15;1.80;;;14.70;99.90;;;;;;5039584;28;20042;-76
2022/11/07 12:24:24;;;;;;;9.77;1.52;;;14.70;99.90;;;;;;5023059;28;20399;-79
2022/11/07 12:27:27;;;;;;;12.48;1.98;;;14.70;99.90;;;;;;5012961;28;20040;-75
2022/11/07 12:30:19;;;;;;;11.25;1.50;;;14.80;99.90;;;;;;5034481;28;20044;-74
2022/11/07 12:33:06;;;;;;;6.10;1.17;;;14.80;99.90;;;;;;5004818;28;20056;-75
2022/11/07 12:35:57;;;;;;;8.95;1.27;;;14.80;99.90;;;;;;5040462;28;20057;-75
2022/11/07 12:38:39;;;;;;;9.82;1.20;;;14.90;99.90;;;;;;5039857;28;20041;-75
2022/11/07 12:41:25;;;;;;;15.15;2.13;;;14.90;99.90;;;;;;5037334;28;20036;-77
2022/11/07 12:44:14;;;;;;;10.15;2.13;;;14.90;99.90;;;;;;5021880;28;20040;-75
2022/11/07 12:46:59;;;;;;;11.00;1.33;;;14.90;99.90;;;;;;5039183;28;20048;-75
2022/11/07 12:49:53;;;;;;;12.55;2.22;;;14.80;99.90;;;;;;5040557;28;20032;-77
2022/11/07 12:52:47;;;;;;;7.60;1.15;;;14.80;99.90;;;;;;5036278;28;20025;-72
2022/11/07 12:55:37;;;;;;;9.18;1.30;;;14.80;99.90;;;;;;5016486;28;20040;-75
2022/11/07 12:58:06;;;;;;;12.02;1.30;;;14.80;99.90;;;;;;5041868;28;20289;-76
2022/11/07 13:00:35;;;;;;;9.23;1.13;;;14.80;99.90;;;;;;5024093;28;20499;-74
2022/11/07 13:03:49;;;;;;;8.95;1.27;;;14.90;99.90;;;;;;5022810;28;20428;-75
2022/11/07 13:06:29;;;;;;;13.18;2.25;;;14.90;99.90;;;;;;5021648;28;20048;-73
2022/11/07 13:09:27;;;;;;;8.85;1.33;;;14.90;99.90;;;;;;5042627;28;20496;-75
2022/11/07 13:12:25;;;;;;;8.98;1.40;;;14.90;99.90;;;;;;5039719;28;20369;-75